Caroline, Canada
Current Conditions -  °F | °C
As of 11:00 AM on Sunday 21 Dec 2014 (Local Time) from CYQF Reporting Station
Broken Clouds Broken Clouds  
Wind Chill: 23°   Ceiling: 9000
Heat Index: 23°   Visibility: 15mi
Dew Point: 19°   Wind: 3mph
Humidity: 86%   Direction: 230°SW
Pressure: 29.33"   Gusts: NA
Location:  52.08°N, 114.75°W
Report Text: CYQF 211800Z 23003KT 15SM BKN090 BKN230 M05/M07 A2933 RMK AC5CI2 SLP978
Loading
Personal Weather Stations






























Interactive Weather Map New forecast layout! Learn more

10-Day Weather Forecast

Advertisements
Track Severe Weather on mobile